sensor_id;sensor_type;location;lat;lon;timestamp;pressure;altitude;pressure_sealevel;temperature;humidity
44988;BME280;35735;52.226;21.254;2023-08-20T00:01:25;100592.81;;;21.12;100.00
44988;BME280;35735;52.226;21.254;2023-08-20T00:06:27;100597.09;;;21.19;100.00
44988;BME280;35735;52.226;21.254;2023-08-20T00:11:28;100594.47;;;21.16;100.00
44988;BME280;35735;52.226;21.254;2023-08-20T00:16:28;100588.41;;;21.08;100.00
44988;BME280;35735;52.226;21.254;2023-08-20T00:21:29;100578.12;;;21.13;100.00
44988;BME280;35735;52.226;21.254;2023-08-20T00:26:30;100577.19;;;21.14;100.00
44988;BME280;35735;52.226;21.254;2023-08-20T00:31:31;100595.88;;;21.04;100.00
44988;BME280;35735;52.226;21.254;2023-08-20T00:36:31;100588.69;;;21.02;100.00
44988;BME280;35735;52.226;21.254;2023-08-20T00:41:32;100580.50;;;21.00;100.00
44988;BME280;35735;52.226;21.254;2023-08-20T00:46:33;100587.75;;;21.01;100.00
44988;BME280;35735;52.226;21.254;2023-08-20T00:51:34;100590.50;;;21.01;100.00
44988;BME280;35735;52.226;21.254;2023-08-20T00:56:34;100588.44;;;20.84;100.00
44988;BME280;35735;52.226;21.254;2023-08-20T01:01:35;100590.13;;;20.88;100.00
44988;BME280;35735;52.226;21.254;2023-08-20T01:12:31;100584.12;;;20.79;100.00
44988;BME280;35735;52.226;21.254;2023-08-20T01:17:34;100588.28;;;20.65;100.00
44988;BME280;35735;52.226;21.254;2023-08-20T01:33:19;100588.53;;;20.58;100.00
44988;BME280;35735;52.226;21.254;2023-08-20T01:38:20;100589.87;;;20.47;100.00
44988;BME280;35735;52.226;21.254;2023-08-20T01:43:21;100603.63;;;20.46;100.00
44988;BME280;35735;52.226;21.254;2023-08-20T01:48:21;100597.84;;;20.30;100.00
44988;BME280;35735;52.226;21.254;2023-08-20T01:53:22;100598.06;;;20.24;100.00
44988;BME280;35735;52.226;21.254;2023-08-20T01:58:22;100603.28;;;20.31;100.00
44988;BME280;35735;52.226;21.254;2023-08-20T02:03:23;100606.28;;;20.24;100.00
44988;BME280;35735;52.226;21.254;2023-08-20T02:08:23;100605.34;;;20.25;100.00
44988;BME280;35735;52.226;21.254;2023-08-20T02:13:24;100609.03;;;20.24;100.00
44988;BME280;35735;52.226;21.254;2023-08-20T02:18:25;100609.97;;;20.23;100.00
44988;BME280;35735;52.226;21.254;2023-08-20T02:23:25;100614.72;;;20.17;100.00
44988;BME280;35735;52.226;21.254;2023-08-20T02:28:26;100609.19;;;20.19;100.00
44988;BME280;35735;52.226;21.254;2023-08-20T02:33:26;100606.00;;;20.31;100.00
44988;BME280;35735;52.226;21.254;2023-08-20T02:38:27;100605.25;;;20.26;100.00
44988;BME280;35735;52.226;21.254;2023-08-20T02:43:27;100596.37;;;20.20;100.00
44988;BME280;35735;52.226;21.254;2023-08-20T02:48:29;100600.91;;;20.21;100.00
44988;BME280;35735;52.226;21.254;2023-08-20T02:53:30;100598.19;;;20.21;100.00
44988;BME280;35735;52.226;21.254;2023-08-20T02:58:30;100596.72;;;20.10;100.00
44988;BME280;35735;52.226;21.254;2023-08-20T03:03:31;100597.19;;;19.98;100.00
44988;BME280;35735;52.226;21.254;2023-08-20T03:08:31;100593.47;;;19.99;100.00
44988;BME280;35735;52.226;21.254;2023-08-20T03:13:32;100597.19;;;19.98;100.00
44988;BME280;35735;52.226;21.254;2023-08-20T03:18:33;100590.38;;;19.85;100.00
44988;BME280;35735;52.226;21.254;2023-08-20T03:23:33;100587.84;;;19.78;100.00
44988;BME280;35735;52.226;21.254;2023-08-20T03:28:34;100597.50;;;19.89;100.00
44988;BME280;35735;52.226;21.254;2023-08-20T03:33:34;100599.06;;;19.96;100.00
44988;BME280;35735;52.226;21.254;2023-08-20T03:38:35;100602.25;;;19.84;100.00
44988;BME280;35735;52.226;21.254;2023-08-20T03:43:35;100610.03;;;19.69;100.00
44988;BME280;35735;52.226;21.254;2023-08-20T03:48:36;100600.69;;;19.76;100.00
44988;BME280;35735;52.226;21.254;2023-08-20T03:53:37;100596.37;;;19.68;100.00
44988;BME280;35735;52.226;21.254;2023-08-20T03:58:38;100596.53;;;19.65;100.00
44988;BME280;35735;52.226;21.254;2023-08-20T04:03:39;100599.69;;;19.79;100.00
44988;BME280;35735;52.226;21.254;2023-08-20T04:08:40;100606.84;;;19.83;100.00
44988;BME280;35735;52.226;21.254;2023-08-20T04:13:41;100603.37;;;19.78;100.00
44988;BME280;35735;52.226;21.254;2023-08-20T04:18:41;100599.63;;;19.80;100.00
44988;BME280;35735;52.226;21.254;2023-08-20T04:23:42;100609.66;;;19.82;100.00
44988;BME280;35735;52.226;21.254;2023-08-20T04:28:43;100604.44;;;19.99;100.00
44988;BME280;35735;52.226;21.254;2023-08-20T04:33:45;100611.25;;;20.12;100.00
44988;BME280;35735;52.226;21.254;2023-08-20T04:38:46;100608.91;;;20.27;100.00
44988;BME280;35735;52.226;21.254;2023-08-20T04:43:47;100620.97;;;20.46;100.00
44988;BME280;35735;52.226;21.254;2023-08-20T04:48:47;100624.72;;;20.69;100.00
44988;BME280;35735;52.226;21.254;2023-08-20T04:53:48;100621.78;;;20.97;100.00
44988;BME280;35735;52.226;21.254;2023-08-20T04:58:48;100621.62;;;21.24;100.00
44988;BME280;35735;52.226;21.254;2023-08-20T05:03:49;100617.06;;;21.45;100.00
44988;BME280;35735;52.226;21.254;2023-08-20T05:08:49;100623.47;;;21.68;100.00
44988;BME280;35735;52.226;21.254;2023-08-20T05:13:50;100622.97;;;22.00;100.00
44988;BME280;35735;52.226;21.254;2023-08-20T05:18:50;100620.84;;;22.48;100.00
44988;BME280;35735;52.226;21.254;2023-08-20T05:23:51;100624.31;;;22.91;100.00
44988;BME280;35735;52.226;21.254;2023-08-20T05:28:51;100628.78;;;23.32;100.00
44988;BME280;35735;52.226;21.254;2023-08-20T05:33:52;100629.41;;;23.56;100.00
44988;BME280;35735;52.226;21.254;2023-08-20T05:38:52;100633.44;;;23.85;100.00
44988;BME280;35735;52.226;21.254;2023-08-20T05:43:53;100642.72;;;24.19;100.00
44988;BME280;35735;52.226;21.254;2023-08-20T05:48:54;100653.22;;;24.64;100.00
44988;BME280;35735;52.226;21.254;2023-08-20T05:53:54;100654.56;;;25.06;100.00
44988;BME280;35735;52.226;21.254;2023-08-20T05:58:55;100654.25;;;25.44;100.00
44988;BME280;35735;52.226;21.254;2023-08-20T06:03:55;100650.31;;;25.80;100.00
44988;BME280;35735;52.226;21.254;2023-08-20T06:08:56;100653.81;;;26.14;100.00
44988;BME280;35735;52.226;21.254;2023-08-20T06:13:56;100647.94;;;26.49;100.00
44988;BME280;35735;52.226;21.254;2023-08-20T06:18:57;100647.81;;;26.80;100.00
44988;BME280;35735;52.226;21.254;2023-08-20T06:23:58;100658.75;;;27.11;100.00
44988;BME280;35735;52.226;21.254;2023-08-20T06:28:59;100652.81;;;27.31;100.00
44988;BME280;35735;52.226;21.254;2023-08-20T06:33:59;100654.25;;;27.51;100.00
44988;BME280;35735;52.226;21.254;2023-08-20T06:39:00;100653.28;;;27.80;100.00
44988;BME280;35735;52.226;21.254;2023-08-20T06:44:01;100658.75;;;28.21;100.00
44988;BME280;35735;52.226;21.254;2023-08-20T06:49:03;100670.03;;;28.58;100.00
44988;BME280;35735;52.226;21.254;2023-08-20T06:54:04;100674.16;;;28.91;100.00
44988;BME280;35735;52.226;21.254;2023-08-20T06:59:05;100682.25;;;29.20;100.00
44988;BME280;35735;52.226;21.254;2023-08-20T07:04:05;100675.84;;;29.56;100.00
44988;BME280;35735;52.226;21.254;2023-08-20T07:09:06;100679.44;;;29.83;100.00
44988;BME280;35735;52.226;21.254;2023-08-20T07:14:07;100684.63;;;30.11;100.00
44988;BME280;35735;52.226;21.254;2023-08-20T07:19:07;100692.06;;;30.24;100.00
44988;BME280;35735;52.226;21.254;2023-08-20T07:24:08;100685.69;;;30.46;100.00
44988;BME280;35735;52.226;21.254;2023-08-20T07:29:08;100685.47;;;30.49;99.92
44988;BME280;35735;52.226;21.254;2023-08-20T07:34:09;100690.66;;;30.65;99.10
44988;BME280;35735;52.226;21.254;2023-08-20T07:39:10;100697.53;;;30.83;98.04
44988;BME280;35735;52.226;21.254;2023-08-20T07:44:10;100700.88;;;31.00;97.32
44988;BME280;35735;52.226;21.254;2023-08-20T07:49:11;100690.50;;;31.13;96.16
44988;BME280;35735;52.226;21.254;2023-08-20T07:54:11;100703.28;;;31.27;96.20
44988;BME280;35735;52.226;21.254;2023-08-20T07:59:12;100704.28;;;31.49;95.62
44988;BME280;35735;52.226;21.254;2023-08-20T08:04:12;100694.28;;;31.69;94.64
44988;BME280;35735;52.226;21.254;2023-08-20T08:09:27;100699.22;;;31.76;93.22
44988;BME280;35735;52.226;21.254;2023-08-20T08:14:29;100690.47;;;31.81;92.27
44988;BME280;35735;52.226;21.254;2023-08-20T08:19:29;100689.88;;;31.99;91.79
44988;BME280;35735;52.226;21.254;2023-08-20T08:24:30;100691.72;;;32.21;91.80
44988;BME280;35735;52.226;21.254;2023-08-20T08:29:31;100685.00;;;32.23;90.14
44988;BME280;35735;52.226;21.254;2023-08-20T08:34:31;100686.56;;;32.16;88.50
44988;BME280;35735;52.226;21.254;2023-08-20T08:39:32;100691.13;;;32.06;89.99
44988;BME280;35735;52.226;21.254;2023-08-20T08:44:34;100678.81;;;32.20;89.44
44988;BME280;35735;52.226;21.254;2023-08-20T08:49:34;100688.97;;;32.42;89.35
44988;BME280;35735;52.226;21.254;2023-08-20T08:54:35;100702.69;;;32.66;88.27
44988;BME280;35735;52.226;21.254;2023-08-20T08:59:36;100699.00;;;32.65;87.60
44988;BME280;35735;52.226;21.254;2023-08-20T09:04:40;100690.63;;;32.65;86.61
44988;BME280;35735;52.226;21.254;2023-08-20T09:09:44;100701.13;;;32.73;87.66
44988;BME280;35735;52.226;21.254;2023-08-20T09:14:47;100705.41;;;32.77;87.17
44988;BME280;35735;52.226;21.254;2023-08-20T09:19:48;100701.09;;;32.94;87.07
44988;BME280;35735;52.226;21.254;2023-08-20T09:24:54;100701.97;;;33.16;85.47
44988;BME280;35735;52.226;21.254;2023-08-20T09:29:56;100698.69;;;33.32;83.70
44988;BME280;35735;52.226;21.254;2023-08-20T09:34:57;100698.69;;;33.32;82.58
44988;BME280;35735;52.226;21.254;2023-08-20T09:39:57;100704.31;;;33.41;82.04
44988;BME280;35735;52.226;21.254;2023-08-20T09:44:59;100691.41;;;33.60;80.63
44988;BME280;35735;52.226;21.254;2023-08-20T09:50:06;100685.44;;;33.74;80.57
44988;BME280;35735;52.226;21.254;2023-08-20T09:55:15;100689.16;;;33.94;78.66
44988;BME280;35735;52.226;21.254;2023-08-20T10:00:17;100685.34;;;34.05;79.09
44988;BME280;35735;52.226;21.254;2023-08-20T10:05:17;100678.84;;;34.05;78.60
44988;BME280;35735;52.226;21.254;2023-08-20T10:10:18;100670.00;;;34.09;78.66
44988;BME280;35735;52.226;21.254;2023-08-20T10:15:19;100673.56;;;34.21;77.66
44988;BME280;35735;52.226;21.254;2023-08-20T10:20:19;100661.63;;;34.39;77.01
44988;BME280;35735;52.226;21.254;2023-08-20T10:25:26;100655.88;;;34.50;76.85
44988;BME280;35735;52.226;21.254;2023-08-20T10:30:26;100655.25;;;34.46;75.24
44988;BME280;35735;52.226;21.254;2023-08-20T10:35:31;100656.47;;;34.34;75.80
44988;BME280;35735;52.226;21.254;2023-08-20T10:51:19;100647.31;;;34.12;75.33
44988;BME280;35735;52.226;21.254;2023-08-20T10:56:57;100640.37;;;34.17;74.46
44988;BME280;35735;52.226;21.254;2023-08-20T11:01:58;100641.13;;;34.09;73.98
44988;BME280;35735;52.226;21.254;2023-08-20T11:07:00;100640.06;;;34.20;73.71
44988;BME280;35735;52.226;21.254;2023-08-20T11:12:01;100636.25;;;34.11;74.22
44988;BME280;35735;52.226;21.254;2023-08-20T11:17:01;100628.13;;;33.98;74.43
44988;BME280;35735;52.226;21.254;2023-08-20T11:22:02;100631.09;;;33.87;73.94
44988;BME280;35735;52.226;21.254;2023-08-20T11:27:03;100634.34;;;33.92;72.76
44988;BME280;35735;52.226;21.254;2023-08-20T11:32:04;100629.91;;;33.99;73.59
44988;BME280;35735;52.226;21.254;2023-08-20T11:37:05;100619.00;;;33.96;74.74
44988;BME280;35735;52.226;21.254;2023-08-20T11:42:06;100604.56;;;34.10;74.18
44988;BME280;35735;52.226;21.254;2023-08-20T11:47:15;100602.94;;;33.98;73.47
44988;BME280;35735;52.226;21.254;2023-08-20T11:52:18;100604.84;;;33.97;73.83
44988;BME280;35735;52.226;21.254;2023-08-20T11:57:19;100603.69;;;34.00;74.04
44988;BME280;35735;52.226;21.254;2023-08-20T12:02:26;100609.59;;;33.97;72.86
44988;BME280;35735;52.226;21.254;2023-08-20T12:07:27;100596.00;;;33.83;73.42
44988;BME280;35735;52.226;21.254;2023-08-20T12:12:28;100604.28;;;33.84;71.66
44988;BME280;35735;52.226;21.254;2023-08-20T12:17:28;100589.53;;;33.72;72.52
44988;BME280;35735;52.226;21.254;2023-08-20T12:22:29;100586.16;;;33.78;72.49
44988;BME280;35735;52.226;21.254;2023-08-20T12:27:29;100584.66;;;33.74;73.04
44988;BME280;35735;52.226;21.254;2023-08-20T12:32:30;100584.34;;;33.68;73.25
44988;BME280;35735;52.226;21.254;2023-08-20T12:37:30;100598.03;;;33.61;73.43
44988;BME280;35735;52.226;21.254;2023-08-20T12:42:31;100582.87;;;33.64;73.88
44988;BME280;35735;52.226;21.254;2023-08-20T12:47:32;100583.75;;;33.64;73.78
44988;BME280;35735;52.226;21.254;2023-08-20T12:52:33;100596.84;;;33.54;73.47
44988;BME280;35735;52.226;21.254;2023-08-20T12:57:34;100590.06;;;33.47;72.88
44988;BME280;35735;52.226;21.254;2023-08-20T13:02:35;100579.16;;;33.44;73.15
44988;BME280;35735;52.226;21.254;2023-08-20T13:07:36;100585.94;;;33.51;72.39
44988;BME280;35735;52.226;21.254;2023-08-20T13:12:37;100588.00;;;33.49;70.61
44988;BME280;35735;52.226;21.254;2023-08-20T13:17:42;100577.38;;;33.42;72.10
44988;BME280;35735;52.226;21.254;2023-08-20T13:22:42;100580.47;;;33.39;72.07
44988;BME280;35735;52.226;21.254;2023-08-20T13:27:43;100585.03;;;33.31;72.08
44988;BME280;35735;52.226;21.254;2023-08-20T13:32:44;100579.41;;;33.21;71.52
44988;BME280;35735;52.226;21.254;2023-08-20T13:37:44;100558.94;;;33.20;71.50
44988;BME280;35735;52.226;21.254;2023-08-20T13:42:45;100558.97;;;33.30;72.44
44988;BME280;35735;52.226;21.254;2023-08-20T13:47:45;100561.03;;;33.28;71.99
44988;BME280;35735;52.226;21.254;2023-08-20T13:52:46;100553.22;;;33.22;72.46
44988;BME280;35735;52.226;21.254;2023-08-20T13:57:46;100556.38;;;33.08;72.12
44988;BME280;35735;52.226;21.254;2023-08-20T14:02:47;100550.91;;;32.96;72.13
44988;BME280;35735;52.226;21.254;2023-08-20T14:07:48;100547.34;;;32.94;72.86
44988;BME280;35735;52.226;21.254;2023-08-20T14:12:48;100545.44;;;32.85;73.13
44988;BME280;35735;52.226;21.254;2023-08-20T14:17:49;100548.34;;;32.83;73.38
44988;BME280;35735;52.226;21.254;2023-08-20T14:22:49;100541.25;;;32.70;73.79
44988;BME280;35735;52.226;21.254;2023-08-20T14:27:50;100540.75;;;32.64;74.79
44988;BME280;35735;52.226;21.254;2023-08-20T14:32:50;100537.22;;;32.62;73.83
44988;BME280;35735;52.226;21.254;2023-08-20T14:37:53;100527.22;;;32.60;74.69
44988;BME280;35735;52.226;21.254;2023-08-20T14:42:53;100532.59;;;32.52;74.55
44988;BME280;35735;52.226;21.254;2023-08-20T14:47:54;100524.84;;;32.34;74.07
44988;BME280;35735;52.226;21.254;2023-08-20T14:52:55;100530.72;;;32.31;75.31
44988;BME280;35735;52.226;21.254;2023-08-20T14:57:55;100528.34;;;32.26;75.67
44988;BME280;35735;52.226;21.254;2023-08-20T15:02:56;100528.91;;;32.20;76.25
44988;BME280;35735;52.226;21.254;2023-08-20T15:07:56;100533.00;;;32.16;76.60
44988;BME280;35735;52.226;21.254;2023-08-20T15:12:57;100527.97;;;32.10;75.88
44988;BME280;35735;52.226;21.254;2023-08-20T15:17:57;100524.66;;;32.05;75.89
44988;BME280;35735;52.226;21.254;2023-08-20T15:22:58;100529.28;;;31.94;75.55
44988;BME280;35735;52.226;21.254;2023-08-20T15:27:58;100517.50;;;31.91;75.69
44988;BME280;35735;52.226;21.254;2023-08-20T15:32:59;100521.59;;;31.87;76.13
44988;BME280;35735;52.226;21.254;2023-08-20T15:38:00;100506.41;;;31.80;76.42
44988;BME280;35735;52.226;21.254;2023-08-20T15:43:00;100514.91;;;31.78;76.60
44988;BME280;35735;52.226;21.254;2023-08-20T15:48:01;100507.09;;;31.72;76.80
44988;BME280;35735;52.226;21.254;2023-08-20T15:53:01;100511.03;;;31.69;76.84
44988;BME280;35735;52.226;21.254;2023-08-20T15:58:02;100507.75;;;31.64;76.63
44988;BME280;35735;52.226;21.254;2023-08-20T16:03:03;100509.03;;;31.60;77.11
44988;BME280;35735;52.226;21.254;2023-08-20T16:08:04;100515.16;;;31.54;77.31
44988;BME280;35735;52.226;21.254;2023-08-20T16:13:05;100516.53;;;31.48;77.50
44988;BME280;35735;52.226;21.254;2023-08-20T16:18:06;100512.66;;;31.39;77.53
44988;BME280;35735;52.226;21.254;2023-08-20T16:23:07;100514.97;;;31.34;78.24
44988;BME280;35735;52.226;21.254;2023-08-20T16:28:08;100512.31;;;31.33;78.36
44988;BME280;35735;52.226;21.254;2023-08-20T16:33:09;100512.56;;;31.30;78.53
44988;BME280;35735;52.226;21.254;2023-08-20T16:38:09;100510.41;;;31.22;78.97
44988;BME280;35735;52.226;21.254;2023-08-20T16:43:10;100514.75;;;31.15;79.43
44988;BME280;35735;52.226;21.254;2023-08-20T16:48:11;100519.22;;;31.06;79.32
44988;BME280;35735;52.226;21.254;2023-08-20T16:53:11;100527.59;;;30.95;79.16
44988;BME280;35735;52.226;21.254;2023-08-20T16:58:12;100523.53;;;30.88;79.63
44988;BME280;35735;52.226;21.254;2023-08-20T17:03:13;100533.41;;;30.80;80.17
44988;BME280;35735;52.226;21.254;2023-08-20T17:08:13;100533.69;;;30.77;81.03
44988;BME280;35735;52.226;21.254;2023-08-20T17:13:14;100537.97;;;30.70;81.54
44988;BME280;35735;52.226;21.254;2023-08-20T17:18:14;100527.84;;;30.58;82.48
44988;BME280;35735;52.226;21.254;2023-08-20T17:23:15;100534.41;;;30.45;82.96
44988;BME280;35735;52.226;21.254;2023-08-20T17:28:16;100535.28;;;30.35;83.28
44988;BME280;35735;52.226;21.254;2023-08-20T17:33:16;100539.06;;;30.22;83.90
44988;BME280;35735;52.226;21.254;2023-08-20T17:38:17;100542.06;;;30.08;84.37
44988;BME280;35735;52.226;21.254;2023-08-20T17:43:18;100539.88;;;29.89;85.26
44988;BME280;35735;52.226;21.254;2023-08-20T17:48:18;100527.63;;;29.67;86.04
44988;BME280;35735;52.226;21.254;2023-08-20T17:53:23;100531.75;;;29.50;87.17
44988;BME280;35735;52.226;21.254;2023-08-20T17:58:25;100526.81;;;29.30;88.13
44988;BME280;35735;52.226;21.254;2023-08-20T18:03:25;100536.53;;;29.11;88.83
44988;BME280;35735;52.226;21.254;2023-08-20T18:08:26;100548.38;;;28.89;89.74
44988;BME280;35735;52.226;21.254;2023-08-20T18:13:26;100550.19;;;28.64;90.56
44988;BME280;35735;52.226;21.254;2023-08-20T18:18:27;100555.53;;;28.42;91.42
44988;BME280;35735;52.226;21.254;2023-08-20T18:23:27;100562.63;;;28.20;92.47
44988;BME280;35735;52.226;21.254;2023-08-20T18:28:28;100565.50;;;28.06;93.22
44988;BME280;35735;52.226;21.254;2023-08-20T18:33:30;100573.09;;;27.89;93.79
44988;BME280;35735;52.226;21.254;2023-08-20T18:43:31;100581.09;;;27.54;95.19
44988;BME280;35735;52.226;21.254;2023-08-20T18:48:32;100588.97;;;27.33;95.87
44988;BME280;35735;52.226;21.254;2023-08-20T18:53:34;100586.63;;;27.27;96.17
44988;BME280;35735;52.226;21.254;2023-08-20T18:58:34;100583.38;;;27.06;96.87
44988;BME280;35735;52.226;21.254;2023-08-20T19:03:35;100588.66;;;26.96;97.22
44988;BME280;35735;52.226;21.254;2023-08-20T19:08:35;100588.44;;;26.85;97.68
44988;BME280;35735;52.226;21.254;2023-08-20T19:13:36;100587.38;;;26.73;98.08
44988;BME280;35735;52.226;21.254;2023-08-20T19:18:36;100590.81;;;26.62;98.48
44988;BME280;35735;52.226;21.254;2023-08-20T19:23:37;100600.13;;;26.47;99.08
44988;BME280;35735;52.226;21.254;2023-08-20T19:28:38;100604.34;;;26.38;99.93
44988;BME280;35735;52.226;21.254;2023-08-20T19:33:38;100600.19;;;26.31;100.00
44988;BME280;35735;52.226;21.254;2023-08-20T19:38:39;100603.37;;;26.24;100.00
44988;BME280;35735;52.226;21.254;2023-08-20T19:43:39;100615.69;;;26.19;100.00
44988;BME280;35735;52.226;21.254;2023-08-20T19:48:40;100616.87;;;26.15;100.00
44988;BME280;35735;52.226;21.254;2023-08-20T19:53:41;100615.25;;;26.11;100.00
44988;BME280;35735;52.226;21.254;2023-08-20T19:58:42;100613.28;;;26.13;100.00
44988;BME280;35735;52.226;21.254;2023-08-20T20:03:43;100611.91;;;26.05;100.00
44988;BME280;35735;52.226;21.254;2023-08-20T20:08:44;100620.69;;;25.98;100.00
44988;BME280;35735;52.226;21.254;2023-08-20T20:13:44;100628.44;;;25.91;100.00
44988;BME280;35735;52.226;21.254;2023-08-20T20:18:45;100624.41;;;25.81;100.00
44988;BME280;35735;52.226;21.254;2023-08-20T20:23:45;100627.75;;;25.72;100.00
44988;BME280;35735;52.226;21.254;2023-08-20T20:28:46;100634.13;;;25.58;100.00
44988;BME280;35735;52.226;21.254;2023-08-20T20:33:46;100633.59;;;25.51;100.00
44988;BME280;35735;52.226;21.254;2023-08-20T20:38:47;100635.09;;;25.41;100.00
44988;BME280;35735;52.226;21.254;2023-08-20T20:43:47;100632.78;;;25.33;100.00
44988;BME280;35735;52.226;21.254;2023-08-20T20:48:48;100638.56;;;25.28;100.00
44988;BME280;35735;52.226;21.254;2023-08-20T20:53:49;100641.19;;;25.14;100.00
44988;BME280;35735;52.226;21.254;2023-08-20T20:58:50;100639.78;;;25.07;100.00
44988;BME280;35735;52.226;21.254;2023-08-20T21:03:51;100637.44;;;24.99;100.00
44988;BME280;35735;52.226;21.254;2023-08-20T21:08:51;100649.91;;;24.90;100.00
44988;BME280;35735;52.226;21.254;2023-08-20T21:13:52;100646.03;;;24.77;100.00
44988;BME280;35735;52.226;21.254;2023-08-20T21:18:52;100650.47;;;24.64;100.00
44988;BME280;35735;52.226;21.254;2023-08-20T21:23:53;100657.50;;;24.52;100.00
44988;BME280;35735;52.226;21.254;2023-08-20T21:28:54;100648.69;;;24.45;100.00
44988;BME280;35735;52.226;21.254;2023-08-20T21:33:54;100651.13;;;24.34;100.00
44988;BME280;35735;52.226;21.254;2023-08-20T21:38:55;100657.16;;;24.25;100.00
44988;BME280;35735;52.226;21.254;2023-08-20T21:43:55;100652.09;;;24.15;100.00
44988;BME280;35735;52.226;21.254;2023-08-20T21:48:56;100648.13;;;24.03;100.00
44988;BME280;35735;52.226;21.254;2023-08-20T21:53:57;100645.88;;;23.94;100.00
44988;BME280;35735;52.226;21.254;2023-08-20T21:59:01;100648.28;;;23.83;100.00
44988;BME280;35735;52.226;21.254;2023-08-20T22:04:03;100642.31;;;23.73;100.00
44988;BME280;35735;52.226;21.254;2023-08-20T22:09:04;100647.34;;;23.65;100.00
44988;BME280;35735;52.226;21.254;2023-08-20T22:14:04;100656.09;;;23.56;100.00
44988;BME280;35735;52.226;21.254;2023-08-20T22:19:05;100649.75;;;23.54;100.00
44988;BME280;35735;52.226;21.254;2023-08-20T22:24:05;100652.56;;;23.52;100.00
44988;BME280;35735;52.226;21.254;2023-08-20T22:29:06;100645.44;;;23.48;100.00
44988;BME280;35735;52.226;21.254;2023-08-20T22:34:07;100655.06;;;23.39;100.00
44988;BME280;35735;52.226;21.254;2023-08-20T22:39:07;100646.94;;;23.36;100.00
44988;BME280;35735;52.226;21.254;2023-08-20T22:44:08;100652.75;;;23.30;100.00
44988;BME280;35735;52.226;21.254;2023-08-20T22:49:09;100642.22;;;23.21;100.00
44988;BME280;35735;52.226;21.254;2023-08-20T22:54:09;100647.13;;;23.14;100.00
44988;BME280;35735;52.226;21.254;2023-08-20T22:59:10;100650.09;;;23.09;100.00
44988;BME280;35735;52.226;21.254;2023-08-20T23:04:10;100657.94;;;22.98;100.00
44988;BME280;35735;52.226;21.254;2023-08-20T23:09:11;100640.53;;;22.98;100.00
44988;BME280;35735;52.226;21.254;2023-08-20T23:14:11;100647.06;;;22.95;100.00
44988;BME280;35735;52.226;21.254;2023-08-20T23:19:12;100640.09;;;22.88;100.00
44988;BME280;35735;52.226;21.254;2023-08-20T23:24:13;100643.78;;;22.87;100.00
44988;BME280;35735;52.226;21.254;2023-08-20T23:29:13;100638.59;;;22.81;100.00
44988;BME280;35735;52.226;21.254;2023-08-20T23:34:14;100637.06;;;22.73;100.00
44988;BME280;35735;52.226;21.254;2023-08-20T23:39:15;100640.22;;;22.66;100.00
44988;BME280;35735;52.226;21.254;2023-08-20T23:44:15;100638.47;;;22.63;100.00
44988;BME280;35735;52.226;21.254;2023-08-20T23:49:16;100639.41;;;22.64;100.00
44988;BME280;35735;52.226;21.254;2023-08-20T23:54:17;100635.66;;;22.65;100.00
44988;BME280;35735;52.226;21.254;2023-08-20T23:59:17;100636.72;;;22.62;100.00
